Time;durP1;ratioP1;P1;durP2;ratioP2;P2;SDS_P1;SDS_P2;PMS_P1;PMS_P2;Temp;Humidity;BMP_temperature;BMP_pressure;BME280_temperature;BME280_humidity;BME280_pressure;Samples;Min_cycle;Max_cycle;Signal;HPM_P1;HPM_P2
2023/08/11 00:00:13;;;;;;;;;28.80;26.80;;;;;17.22;54.22;99803.44;5111386;28;8853;-72
2023/08/11 00:03:05;;;;;;;;;25.00;22.80;;;;;17.25;54.12;99813.91;5111111;27;8867;-73
2023/08/11 00:05:37;;;;;;;;;21.40;18.80;;;;;17.27;54.27;99802.34;5111311;28;8837;-75
2023/08/11 00:08:08;;;;;;;;;24.80;24.80;;;;;17.24;54.27;99799.78;5058848;28;8865;-74
2023/08/11 00:10:37;;;;;;;;;27.20;26.20;;;;;17.26;54.52;99803.25;5108892;27;8849;-71
2023/08/11 00:13:08;;;;;;;;;25.20;24.40;;;;;17.28;54.79;99803.19;5111247;28;8841;-75
2023/08/11 00:15:39;;;;;;;;;23.80;23.20;;;;;17.26;54.61;99800.59;5109910;28;8860;-76
2023/08/11 00:18:10;;;;;;;;;27.20;25.00;;;;;17.28;54.80;99800.53;5106761;28;8870;-75
2023/08/11 00:20:39;;;;;;;;;27.60;26.60;;;;;17.25;54.93;99798.88;5089401;28;8852;-74
2023/08/11 00:23:08;;;;;;;;;26.40;26.40;;;;;17.20;54.67;99801.69;5090512;28;8886;-75
2023/08/11 00:25:37;;;;;;;;;28.60;27.80;;;;;17.13;54.89;99800.25;5090640;28;9585;-75
2023/08/11 00:28:06;;;;;;;;;27.80;26.80;;;;;17.10;55.36;99804.84;5105035;28;8854;-73
2023/08/11 00:30:35;;;;;;;;;28.40;25.40;;;;;17.11;55.40;99807.41;5092754;28;8841;-74
2023/08/11 00:33:06;;;;;;;;;23.80;23.80;;;;;17.11;55.15;99809.22;5109847;28;8849;-74
2023/08/11 00:35:38;;;;;;;;;26.60;26.60;;;;;17.10;55.38;99803.06;5109328;28;8875;-75
2023/08/11 00:38:06;;;;;;;;;26.60;24.60;;;;;17.08;55.37;99804.91;5105769;28;8944;-72
2023/08/11 00:40:36;;;;;;;;;25.20;24.00;;;;;17.10;55.49;99803.06;5088747;28;8840;-74
2023/08/11 00:43:05;;;;;;;;;26.80;24.60;;;;;17.03;55.95;99801.59;5076965;28;8842;-74
2023/08/11 00:45:34;;;;;;;;;28.80;28.00;;;;;17.02;55.96;99807.81;5087361;28;8842;-75
2023/08/11 00:48:03;;;;;;;;;30.40;27.60;;;;;17.01;55.91;99803.44;5017437;28;9672;-74
2023/08/11 00:50:33;;;;;;;;;31.80;30.40;;;;;16.99;56.12;99802.66;5018657;28;9689;-73
2023/08/11 00:53:04;;;;;;;;;23.80;23.80;;;;;16.95;56.54;99801.94;5067433;28;8844;-74
2023/08/11 00:55:34;;;;;;;;;26.40;26.40;;;;;16.96;56.42;99810.75;5002532;28;8840;-74
2023/08/11 00:58:03;;;;;;;;;19.00;18.20;;;;;16.96;56.48;99808.94;5068117;28;8871;-75
2023/08/11 01:00:32;;;;;;;;;26.40;24.40;;;;;16.96;56.70;99813.41;5086917;28;9516;-72
2023/08/11 01:03:01;;;;;;;;;26.80;26.40;;;;;16.95;56.59;99812.53;5087513;28;8852;-71
2023/08/11 01:05:34;;;;;;;;;26.40;24.40;;;;;16.93;56.77;99805.59;5053942;28;8850;-75
2023/08/11 01:08:17;;;;;;;;;30.00;28.40;;;;;17.01;56.68;99811.41;5087570;28;8907;-73
2023/08/11 01:10:53;;;;;;;;;29.40;28.80;;;;;16.91;57.15;99804.75;5070451;28;8854;-72
2023/08/11 01:13:23;;;;;;;;;29.60;28.40;;;;;16.92;56.91;99803.84;5088606;27;8838;-74
2023/08/11 01:15:58;;;;;;;;;26.20;25.00;;;;;16.92;56.65;99801.19;5089581;28;9737;-73
2023/08/11 01:18:29;;;;;;;;;26.80;25.20;;;;;16.88;56.72;99807.56;5088560;28;8847;-73
2023/08/11 01:21:03;;;;;;;;;26.60;26.00;;;;;16.87;56.80;99809.38;5105633;28;9620;-72
2023/08/11 01:23:34;;;;;;;;;27.40;26.00;;;;;16.87;56.99;99808.47;5089463;28;8872;-74
2023/08/11 01:26:04;;;;;;;;;26.00;26.00;;;;;16.84;57.18;99804.19;5088413;28;8843;-73
2023/08/11 01:28:35;;;;;;;;;25.40;24.00;;;;;16.84;56.64;99809.50;5088284;28;8859;-73
2023/08/11 01:31:04;;;;;;;;;27.60;27.60;;;;;16.84;56.70;99806.84;5075711;28;8859;-74
2023/08/11 01:33:33;;;;;;;;;27.40;24.40;;;;;16.83;56.93;99809.53;5089386;28;8881;-75
2023/08/11 01:36:03;;;;;;;;;27.20;24.80;;;;;16.80;56.78;99803.44;5088182;28;8870;-75
2023/08/11 01:38:32;;;;;;;;;26.60;24.60;;;;;16.79;56.96;99804.34;5088303;28;8862;-74
2023/08/11 01:41:02;;;;;;;;;26.80;25.60;;;;;16.79;56.94;99809.66;5104677;28;8875;-74
2023/08/11 01:43:31;;;;;;;;;30.00;29.60;;;;;16.75;57.00;99808.06;5070593;28;8931;-74
2023/08/11 01:46:00;;;;;;;;;28.20;27.00;;;;;16.75;57.30;99816.03;5094728;28;8849;-75
2023/08/11 01:48:31;;;;;;;;;30.00;28.60;;;;;16.76;57.51;99808.97;5108693;28;8872;-74
2023/08/11 01:51:00;;;;;;;;;29.80;27.40;;;;;16.72;57.38;99805.56;5106547;28;9612;-75
2023/08/11 01:53:29;;;;;;;;;26.00;24.40;;;;;16.73;57.72;99814.38;5106960;28;8965;-71
2023/08/11 01:55:58;;;;;;;;;30.60;28.80;;;;;16.70;57.59;99810.09;5124317;28;8851;-74
2023/08/11 01:58:30;;;;;;;;;30.60;30.60;;;;;16.63;57.78;99816.56;5090225;28;8867;-72
2023/08/11 02:00:59;;;;;;;;;26.00;25.40;;;;;16.69;57.60;99815.44;5124073;28;8836;-73
2023/08/11 02:03:27;;;;;;;;;28.00;24.60;;;;;16.58;57.90;99810.59;5105795;28;9589;-72
2023/08/11 02:05:58;;;;;;;;;27.60;26.40;;;;;16.55;57.81;99814.25;5089710;28;9002;-74
2023/08/11 02:08:29;;;;;;;;;27.80;26.80;;;;;16.53;57.83;99804.59;5107318;28;8851;-72
2023/08/11 02:10:59;;;;;;;;;28.00;27.60;;;;;16.51;57.97;99815.31;5073640;28;8874;-74
2023/08/11 02:13:29;;;;;;;;;30.80;28.80;;;;;16.49;58.16;99814.47;5073147;28;8917;-75
2023/08/11 02:16:02;;;;;;;;;30.20;28.80;;;;;16.47;58.13;99821.63;5072187;28;8826;-74
2023/08/11 02:18:32;;;;;;;;;27.80;26.00;;;;;16.43;58.19;99815.56;5086545;28;8934;-73
2023/08/11 02:21:02;;;;;;;;;31.20;29.40;;;;;16.41;58.35;99814.75;5093342;28;8852;-74
2023/08/11 02:23:30;;;;;;;;;27.80;27.40;;;;;16.40;58.10;99814.84;5111746;28;8906;-74
2023/08/11 02:26:00;;;;;;;;;31.40;29.00;;;;;16.36;58.35;99815.88;5077733;28;8899;-73
2023/08/11 02:28:31;;;;;;;;;30.80;27.60;;;;;16.33;58.45;99811.56;5112224;28;8960;-74
2023/08/11 02:31:00;;;;;;;;;29.20;27.20;;;;;16.34;58.52;99810.66;5107008;28;8866;-75
2023/08/11 02:33:30;;;;;;;;;26.80;25.80;;;;;16.30;58.58;99813.47;5074732;28;8851;-73
2023/08/11 02:35:59;;;;;;;;;26.60;26.60;;;;;16.31;58.54;99823.19;5091416;28;8865;-74
2023/08/11 02:38:28;;;;;;;;;31.00;28.00;;;;;16.31;58.28;99829.34;5090761;28;9576;-72
2023/08/11 02:40:57;;;;;;;;;27.60;27.60;;;;;16.29;58.38;99825.03;5091320;28;8847;-74
2023/08/11 02:43:27;;;;;;;;;32.80;31.20;;;;;16.26;58.65;99822.47;5091065;28;8844;-75
2023/08/11 02:45:57;;;;;;;;;30.00;27.80;;;;;16.29;58.69;99827.69;5073580;28;8859;-75
2023/08/11 02:48:26;;;;;;;;;30.40;27.80;;;;;16.17;58.93;99816.63;5074570;28;9611;-73
2023/08/11 02:50:55;;;;;;;;;26.60;26.20;;;;;16.24;58.94;99817.25;5092531;28;8828;-75
2023/08/11 02:53:23;;;;;;;;;27.80;27.20;;;;;16.25;58.52;99812.78;5096552;28;8863;-74
2023/08/11 02:55:52;;;;;;;;;29.00;28.20;;;;;16.25;58.76;99826.94;5090986;28;8852;-73
2023/08/11 02:58:21;;;;;;;;;27.20;26.20;;;;;16.23;58.76;99819.03;5092551;28;8830;-72
2023/08/11 03:00:50;;;;;;;;;28.80;26.60;;;;;16.27;58.78;99824.22;5101662;28;8836;-75
2023/08/11 03:03:20;;;;;;;;;32.00;29.20;;;;;16.10;59.16;99825.75;5111101;28;8845;-74
2023/08/11 03:05:50;;;;;;;;;30.60;25.80;;;;;16.15;58.96;99825.56;5111304;28;8841;-73
2023/08/11 03:08:18;;;;;;;;;28.80;27.60;;;;;16.17;58.70;99827.25;5106491;28;9690;-74
2023/08/11 03:10:48;;;;;;;;;30.20;26.80;;;;;16.16;58.85;99828.16;5090720;28;8942;-71
2023/08/11 03:13:28;;;;;;;;;32.20;29.80;;;;;16.18;58.94;99820.16;5074021;28;8900;-73
2023/08/11 03:15:58;;;;;;;;;30.20;28.40;;;;;16.16;59.14;99835.25;5090709;28;8843;-74
2023/08/11 03:18:30;;;;;;;;;28.60;28.60;;;;;16.18;58.94;99822.78;5088487;28;8868;-74
2023/08/11 03:21:02;;;;;;;;;28.40;27.00;;;;;15.94;59.42;99836.06;5111183;28;8883;-75
2023/08/11 03:23:46;;;;;;;;;24.40;24.40;;;;;15.96;59.44;99828.06;5091821;27;9632;-74
2023/08/11 03:26:15;;;;;;;;;28.40;27.80;;;;;15.98;59.33;99836.81;5073835;28;8941;-73
2023/08/11 03:28:44;;;;;;;;;26.40;26.40;;;;;15.97;59.60;99835.13;5091451;28;8840;-74
2023/08/11 03:31:14;;;;;;;;;28.20;28.20;;;;;15.95;59.69;99835.16;5090273;28;8895;-74
2023/08/11 03:33:47;;;;;;;;;35.00;32.50;;;;;15.98;59.49;99835.06;5090529;28;8824;-72
2023/08/11 03:36:16;;;;;;;;;65.25;52.25;;;;;15.91;59.50;99835.34;5089875;28;8862;-73
2023/08/11 03:38:46;;;;;;;;;50.25;41.00;;;;;15.91;59.85;99840.66;5090279;28;8844;-74
2023/08/11 03:41:15;;;;;;;;;36.80;31.40;;;;;15.96;59.61;99831.59;5109546;28;8833;-73
2023/08/11 03:43:44;;;;;;;;;28.80;28.00;;;;;15.95;59.48;99842.25;5110568;28;8860;-74
2023/08/11 03:46:16;;;;;;;;;31.60;29.60;;;;;15.92;59.75;99845.03;5127456;27;8849;-71
2023/08/11 03:48:45;;;;;;;;;31.00;30.40;;;;;15.94;59.58;99846.69;5098888;28;8863;-73
2023/08/11 03:51:15;;;;;;;;;67.75;55.00;;;;;15.90;59.70;99839.78;5110524;28;8849;-74
2023/08/11 03:53:44;;;;;;;;;39.25;35.25;;;;;15.81;60.03;99851.59;5043126;28;8945;-74
2023/08/11 03:56:13;;;;;;;;;39.60;34.40;;;;;15.74;60.25;99846.59;5110136;28;8864;-75
2023/08/11 03:58:46;;;;;;;;;31.00;28.60;;;;;15.79;60.25;99847.28;5116012;27;8849;-74
2023/08/11 04:01:15;;;;;;;;;32.20;30.40;;;;;15.81;60.36;99845.41;5110301;28;8837;-75
2023/08/11 04:03:46;;;;;;;;;26.60;26.20;;;;;15.86;59.88;99850.56;5093218;28;8864;-74
2023/08/11 04:06:17;;;;;;;;;31.40;30.00;;;;;15.92;59.99;99858.28;5109919;28;9633;-73
2023/08/11 04:08:45;;;;;;;;;75.00;64.50;;;;;15.96;60.10;99857.22;5109455;28;8867;-76
2023/08/11 04:11:14;;;;;;;;;31.00;29.00;;;;;15.89;60.10;99858.38;5110279;28;8844;-74
2023/08/11 04:13:43;;;;;;;;;32.40;31.00;;;;;15.98;59.59;99864.22;5108413;28;8883;-75
2023/08/11 04:16:13;;;;;;;;;28.60;27.40;;;;;15.95;59.52;99866.13;5110018;28;8856;-76
2023/08/11 04:18:41;;;;;;;;;30.80;27.20;;;;;15.98;59.53;99860.69;5109847;28;8922;-75
2023/08/11 04:21:10;;;;;;;;;29.80;29.00;;;;;16.00;59.37;99862.38;5054609;28;8845;-75
2023/08/11 04:23:41;;;;;;;;;27.40;27.40;;;;;16.08;59.26;99863.84;5054550;28;8861;-74
2023/08/11 04:26:11;;;;;;;;;63.25;51.50;;;;;16.18;59.16;99866.09;5088398;28;8861;-73
2023/08/11 04:28:43;;;;;;;;;39.50;35.50;;;;;16.26;58.50;99867.56;5071306;28;8869;-75
2023/08/11 04:31:14;;;;;;;;;29.60;28.80;;;;;16.31;58.35;99871.78;5069678;28;8834;-76
2023/08/11 04:33:43;;;;;;;;;27.80;26.40;;;;;16.32;58.12;99878.81;5070964;28;8919;-75
2023/08/11 04:36:13;;;;;;;;;25.20;23.20;;;;;16.13;58.08;99873.34;5070903;28;8880;-74
2023/08/11 04:38:43;;;;;;;;;30.20;29.60;;;;;15.53;60.22;99882.66;5070761;28;8957;-75
2023/08/11 04:41:12;;;;;;;;;51.25;41.75;;;;;15.51;60.43;99887.13;5070964;28;8830;-77
2023/08/11 04:43:42;;;;;;;;;27.20;27.20;;;;;15.54;60.25;99881.75;5006027;28;8869;-76
2023/08/11 04:46:12;;;;;;;;;31.00;29.40;;;;;15.59;60.00;99883.31;5068434;28;8838;-75
2023/08/11 04:48:41;;;;;;;;;26.60;25.60;;;;;15.68;59.98;99889.22;5070509;28;8927;-75
2023/08/11 04:51:10;;;;;;;;;30.00;28.40;;;;;15.83;59.52;99888.63;5053992;28;8908;-73
2023/08/11 04:53:39;;;;;;;;;21.20;20.80;;;;;15.76;59.86;99892.47;5091617;28;8849;-74
2023/08/11 04:56:09;;;;;;;;;32.00;29.80;;;;;15.96;59.31;99889.94;5092398;28;8841;-76
2023/08/11 04:58:39;;;;;;;;;33.40;31.00;;;;;16.04;59.20;99892.28;5090301;28;8855;-74
2023/08/11 05:01:08;;;;;;;;;33.00;31.80;;;;;15.63;59.70;99892.91;5067300;28;8854;-76
2023/08/11 05:03:37;;;;;;;;;32.60;31.20;;;;;15.49;60.11;99900.47;5104410;28;8843;-74
2023/08/11 05:06:06;;;;;;;;;33.40;29.40;;;;;15.67;60.03;99908.69;5103259;28;8827;-73
2023/08/11 05:08:36;;;;;;;;;28.00;26.60;;;;;15.86;59.47;99909.75;5104605;27;8875;-75
2023/08/11 05:11:05;;;;;;;;;30.80;28.00;;;;;15.93;59.01;99910.41;5107297;28;8867;-75
2023/08/11 05:13:35;;;;;;;;;29.00;29.00;;;;;16.10;59.06;99907.97;5089630;28;8863;-78
2023/08/11 05:16:05;;;;;;;;;29.20;27.60;;;;;16.22;58.14;99907.47;5090198;28;8823;-73
2023/08/11 05:18:34;;;;;;;;;29.60;25.80;;;;;16.12;58.15;99907.91;5105659;28;8989;-71
2023/08/11 05:21:13;;;;;;;;;27.80;27.20;;;;;16.13;56.99;99907.81;5081347;28;8931;-71
2023/08/11 05:23:41;;;;;;;;;28.60;28.00;;;;;16.31;57.28;99916.88;5102353;27;8845;-72
2023/08/11 05:26:10;;;;;;;;;28.60;25.80;;;;;16.45;56.80;99912.84;5103458;27;8822;-71
2023/08/11 05:28:41;;;;;;;;;22.60;22.00;;;;;16.66;56.49;99913.78;5081465;27;8840;-71
2023/08/11 05:31:10;;;;;;;;;24.20;24.20;;;;;16.86;55.85;99907.66;5089434;28;8847;-72
2023/08/11 05:33:38;;;;;;;;;26.40;26.40;;;;;16.97;55.40;99908.94;5078911;28;8858;-72
2023/08/11 05:36:08;;;;;;;;;22.00;22.00;;;;;17.22;55.05;99920.34;5096921;28;8880;-71
2023/08/11 05:38:36;;;;;;;;;25.40;25.40;;;;;17.26;54.15;99919.31;5096691;28;8884;-71
2023/08/11 05:41:05;;;;;;;;;27.00;26.20;;;;;17.16;54.17;99924.13;5094738;28;8817;-73
2023/08/11 05:43:36;;;;;;;;;26.00;25.00;;;;;17.29;53.96;99924.50;5108706;28;8992;-71
2023/08/11 05:46:07;;;;;;;;;25.60;24.00;;;;;16.52;50.71;99924.97;5109379;28;9634;-72
2023/08/11 05:48:36;;;;;;;;;17.40;17.40;;;;;15.77;54.02;99920.69;5107944;28;8841;-71
2023/08/11 05:51:05;;;;;;;;;19.40;19.20;;;;;15.69;54.58;99925.41;5107070;27;8825;-71
2023/08/11 05:53:34;;;;;;;;;16.80;16.80;;;;;15.44;54.06;99927.09;5106938;28;8873;-76
2023/08/11 05:56:03;;;;;;;;;18.20;18.20;;;;;15.83;53.21;99931.06;5108487;28;8857;-78
2023/08/11 05:58:32;;;;;;;;;20.40;20.40;;;;;16.36;51.92;99932.59;5088032;28;8844;-78
2023/08/11 06:01:01;;;;;;;;;20.20;20.00;;;;;15.86;54.70;99928.28;5104446;28;8840;-77
2023/08/11 06:03:32;;;;;;;;;16.40;16.40;;;;;16.44;53.52;99933.22;5106696;27;8837;-77
2023/08/11 06:06:01;;;;;;;;;24.60;23.20;;;;;16.68;51.77;99936.69;5108789;28;8865;-78
2023/08/11 06:08:30;;;;;;;;;21.80;17.80;;;;;16.74;51.19;99935.59;5103324;28;8872;-76
2023/08/11 06:10:59;;;;;;;;;16.20;16.00;;;;;16.74;51.94;99944.41;5105838;28;8845;-77
2023/08/11 06:13:28;;;;;;;;;16.20;15.20;;;;;17.17;50.81;99939.09;5072445;28;8840;-77
2023/08/11 06:15:57;;;;;;;;;18.80;18.80;;;;;17.11;50.63;99940.22;5070674;28;8871;-77
2023/08/11 06:18:26;;;;;;;;;17.60;17.00;;;;;16.93;51.07;99938.34;5052321;28;8845;-76
2023/08/11 06:20:57;;;;;;;;;12.80;12.80;;;;;16.61;51.67;99945.81;5093757;28;8852;-78
2023/08/11 06:23:26;;;;;;;;;19.00;16.40;;;;;16.11;51.72;99941.50;5094135;28;8861;-78
2023/08/11 06:25:56;;;;;;;;;10.80;10.80;;;;;15.87;50.79;99945.94;5105324;27;9618;-78
2023/08/11 06:28:25;;;;;;;;;16.60;16.60;;;;;15.81;52.17;99948.78;5054840;27;8856;-79
2023/08/11 06:30:54;;;;;;;;;13.00;13.00;;;;;15.68;50.21;99951.06;5122254;27;8844;-78
2023/08/11 06:33:26;;;;;;;;;14.00;12.80;;;;;16.04;49.06;99955.94;5100574;28;8853;-78
2023/08/11 06:35:57;;;;;;;;;13.40;12.80;;;;;16.05;50.67;99956.78;5104904;28;8825;-78
2023/08/11 06:38:25;;;;;;;;;14.40;14.40;;;;;15.91;50.70;99960.81;5107467;28;8903;-79
2023/08/11 06:40:55;;;;;;;;;13.80;13.80;;;;;16.08;50.46;99961.97;5109492;27;8845;-79
2023/08/11 06:43:23;;;;;;;;;13.00;13.00;;;;;15.81;51.25;99960.28;5108446;28;8991;-78
2023/08/11 06:45:52;;;;;;;;;15.00;13.80;;;;;15.63;52.01;99963.59;5094633;28;8880;-78
2023/08/11 06:48:21;;;;;;;;;14.40;14.00;;;;;15.74;51.74;99965.88;5107650;28;8995;-78
2023/08/11 06:50:50;;;;;;;;;16.80;16.20;;;;;16.01;51.22;99967.50;5109246;28;8837;-77
2023/08/11 06:53:20;;;;;;;;;19.20;18.00;;;;;15.85;50.70;99969.00;5108449;28;8854;-80
2023/08/11 06:55:49;;;;;;;;;16.20;16.20;;;;;16.03;51.32;99973.59;5106232;28;9590;-78
2023/08/11 06:58:18;;;;;;;;;13.60;13.60;;;;;16.33;51.64;99975.19;5106825;28;9766;-79
2023/08/11 07:00:47;;;;;;;;;15.00;14.40;;;;;16.26;52.17;99971.03;5109671;28;8845;-78
2023/08/11 07:03:15;;;;;;;;;16.00;14.60;;;;;16.60;50.45;99983.91;5109415;28;8946;-77
2023/08/11 07:05:44;;;;;;;;;18.60;17.40;;;;;16.44;49.97;99988.94;5108652;28;8860;-77
2023/08/11 07:08:13;;;;;;;;;17.40;15.80;;;;;16.33;51.08;99981.34;5099672;28;8867;-76
2023/08/11 07:10:43;;;;;;;;;16.20;16.20;;;;;16.02;52.29;99986.94;5108382;28;9045;-77
2023/08/11 07:13:12;;;;;;;;;16.60;16.60;;;;;16.14;52.70;99981.19;5090948;28;8841;-78
2023/08/11 07:15:42;;;;;;;;;18.40;18.40;;;;;16.31;52.10;99996.47;5072920;28;8861;-77
2023/08/11 07:18:12;;;;;;;;;17.80;16.40;;;;;16.73;50.28;99990.44;5089463;28;8933;-77
2023/08/11 07:20:42;;;;;;;;;17.00;16.80;;;;;16.46;51.76;99996.84;5089395;28;8929;-77
2023/08/11 07:23:11;;;;;;;;;16.00;15.20;;;;;16.32;51.67;99989.34;5086611;28;9816;-78
2023/08/11 07:25:40;;;;;;;;;18.00;18.00;;;;;16.57;50.51;99992.84;5088383;28;8891;-79
2023/08/11 07:28:10;;;;;;;;;17.40;17.20;;;;;16.95;50.49;100001.09;5089237;28;9072;-78
2023/08/11 07:30:39;;;;;;;;;16.60;16.40;;;;;16.46;50.01;100000.38;5088996;28;9006;-78
2023/08/11 07:33:07;;;;;;;;;16.60;15.60;;;;;16.79;49.66;99998.16;5054698;28;8865;-79
2023/08/11 07:35:36;;;;;;;;;19.20;17.80;;;;;17.03;49.87;100000.78;5089277;28;8865;-77
2023/08/11 07:38:06;;;;;;;;;18.80;17.60;;;;;17.30;49.04;100004.13;5089399;28;8860;-78
2023/08/11 07:40:38;;;;;;;;;14.80;14.80;;;;;17.22;48.66;100006.19;5088442;28;8972;-78
2023/08/11 07:43:06;;;;;;;;;15.20;14.20;;;;;16.72;50.77;100012.63;5089689;28;8857;-79
2023/08/11 07:45:37;;;;;;;;;19.00;16.80;;;;;16.88;50.68;100007.56;5038296;28;8853;-77
2023/08/11 07:48:06;;;;;;;;;17.60;14.20;;;;;17.12;50.05;100004.88;5088539;28;9602;-73
2023/08/11 07:50:37;;;;;;;;;13.00;13.00;;;;;17.04;48.30;100017.56;5095903;28;8861;-74
2023/08/11 07:53:06;;;;;;;;;14.80;12.20;;;;;17.09;47.22;100010.28;5074618;28;8860;-72
2023/08/11 07:55:35;;;;;;;;;13.20;13.20;;;;;17.17;47.92;100009.06;5101884;28;8844;-74
2023/08/11 07:58:04;;;;;;;;;18.60;17.60;;;;;17.68;47.13;100004.28;5096145;27;8832;-74
2023/08/11 08:00:33;;;;;;;;;15.60;14.80;;;;;17.89;46.57;100007.81;5107817;28;8833;-75
2023/08/11 08:03:04;;;;;;;;;12.40;12.40;;;;;17.96;46.55;100011.91;5125039;27;8837;-77
2023/08/11 08:05:33;;;;;;;;;17.60;17.00;;;;;17.67;48.43;100012.34;5093107;28;8972;-75
2023/08/11 08:08:02;;;;;;;;;17.40;16.40;;;;;17.79;47.43;100014.47;5110950;28;8845;-74
2023/08/11 08:10:31;;;;;;;;;15.00;13.00;;;;;17.77;47.76;100013.66;5110842;28;8945;-74
2023/08/11 08:13:00;;;;;;;;;12.60;12.20;;;;;18.12;46.10;100009.50;5110464;28;8856;-73
2023/08/11 08:15:29;;;;;;;;;11.60;11.60;;;;;18.12;44.78;100011.28;5110728;28;8845;-76
2023/08/11 08:17:58;;;;;;;;;13.40;12.40;;;;;17.93;44.43;100012.06;5108806;28;8861;-76
2023/08/11 08:20:31;;;;;;;;;12.60;12.60;;;;;18.11;45.39;100014.88;5109276;28;8861;-75
2023/08/11 08:22:59;;;;;;;;;11.20;11.00;;;;;18.72;43.52;100011.16;5096688;28;8851;-75
2023/08/11 08:25:28;;;;;;;;;11.80;11.80;;;;;18.49;42.51;100006.94;5055100;28;8910;-76
2023/08/11 08:27:57;;;;;;;;;10.40;10.40;;;;;18.46;42.25;100015.03;5106435;28;8877;-74
2023/08/11 08:30:34;;;;;;;;;10.00;10.00;;;;;18.72;42.22;100011.16;5110500;28;8853;-74
2023/08/11 08:33:05;;;;;;;;;9.00;9.00;;;;;18.95;39.94;100010.13;5091838;28;8857;-74
2023/08/11 08:35:37;;;;;;;;;11.00;10.20;;;;;18.69;41.48;100009.53;5092071;28;8906;-76
2023/08/11 08:38:06;;;;;;;;;11.60;11.60;;;;;18.99;40.62;100003.69;5126126;27;8833;-77
2023/08/11 08:40:36;;;;;;;;;10.40;10.40;;;;;19.23;40.06;100006.06;5092434;28;8854;-74
2023/08/11 08:43:05;;;;;;;;;8.00;8.00;;;;;18.75;39.89;100011.03;5089844;28;8932;-75
2023/08/11 08:45:36;;;;;;;;;9.00;9.00;;;;;18.79;40.54;100006.47;5089864;28;8855;-74
2023/08/11 08:48:10;;;;;;;;;12.00;11.80;;;;;18.57;40.71;100010.09;5089502;28;8848;-78
2023/08/11 08:50:41;;;;;;;;;11.00;11.00;;;;;18.91;40.20;100004.06;5054471;28;8823;-72
2023/08/11 08:53:10;;;;;;;;;13.80;13.80;;;;;19.12;39.50;100001.28;5087174;28;8861;-73
2023/08/11 08:55:39;;;;;;;;;12.20;11.40;;;;;19.15;39.53;100006.47;5070360;28;8842;-75
2023/08/11 08:58:11;;;;;;;;;10.80;10.40;;;;;19.08;39.65;100005.03;5081303;28;8855;-75
2023/08/11 09:00:41;;;;;;;;;9.20;8.60;;;;;18.77;40.07;100005.63;5073441;28;8844;-73
2023/08/11 09:03:11;;;;;;;;;9.00;9.00;;;;;19.04;39.25;100004.31;5053913;28;8832;-74
2023/08/11 09:05:42;;;;;;;;;10.80;10.40;;;;;19.58;38.95;100000.81;5089254;28;8863;-73
2023/08/11 09:08:10;;;;;;;;;8.60;8.40;;;;;19.95;37.83;100010.41;5052415;28;9058;-74
2023/08/11 09:10:39;;;;;;;;;12.00;12.00;;;;;19.37;39.26;100014.25;5100596;28;8812;-74
2023/08/11 09:13:08;;;;;;;;;12.40;11.60;;;;;18.94;39.32;100013.72;5089367;28;8871;-75
2023/08/11 09:15:37;;;;;;;;;16.20;14.80;;;;;19.42;39.18;100004.22;5107386;28;8875;-77
2023/08/11 09:18:06;;;;;;;;;14.00;13.00;;;;;19.75;38.36;100008.81;5073142;28;8837;-79
2023/08/11 09:20:37;;;;;;;;;11.00;11.00;;;;;19.60;37.04;100009.59;5086114;28;8845;-76
2023/08/11 09:23:07;;;;;;;;;8.00;8.00;;;;;20.04;36.05;99996.59;5090137;28;8836;-76
2023/08/11 09:25:37;;;;;;;;;7.20;7.20;;;;;20.36;35.77;99999.38;5096231;28;8860;-73
2023/08/11 09:28:06;;;;;;;;;7.60;7.60;;;;;20.66;34.47;100004.81;5070603;28;8851;-76
2023/08/11 09:30:36;;;;;;;;;6.80;5.40;;;;;20.39;34.95;100009.88;5066140;28;8875;-74
2023/08/11 09:33:07;;;;;;;;;6.00;6.00;;;;;20.35;33.89;100004.78;5049319;28;8925;-75
2023/08/11 09:35:36;;;;;;;;;6.20;6.20;;;;;20.22;35.17;100005.44;5065882;28;8856;-75
2023/08/11 09:38:05;;;;;;;;;6.40;6.40;;;;;20.79;34.96;99996.13;5065086;28;8852;-73
2023/08/11 09:40:36;;;;;;;;;8.00;7.00;;;;;21.08;34.42;99999.84;5090108;28;8959;-72
2023/08/11 09:43:05;;;;;;;;;6.00;6.00;;;;;21.25;33.75;100001.53;5056395;28;8839;-74
2023/08/11 09:45:34;;;;;;;;;7.60;7.60;;;;;21.29;34.40;99992.38;5056619;28;8890;-74
2023/08/11 09:48:03;;;;;;;;;7.00;7.00;;;;;21.51;34.48;99999.13;5086678;28;9651;-73
2023/08/11 09:50:35;;;;;;;;;6.40;6.40;;;;;21.73;33.95;99988.91;5086597;28;8837;-74
2023/08/11 09:53:06;;;;;;;;;8.60;8.60;;;;;21.96;33.51;99997.34;5092326;28;8981;-75
2023/08/11 09:55:41;;;;;;;;;11.40;10.80;;;;;20.94;34.38;100003.31;5072643;28;8878;-76
2023/08/11 09:58:13;;;;;;;;;9.80;9.20;;;;;20.64;35.11;99992.50;5056427;28;8851;-74
2023/08/11 10:00:43;;;;;;;;;11.40;11.40;;;;;20.94;35.50;99997.97;5039722;28;8839;-76
2023/08/11 10:03:16;;;;;;;;;10.40;10.40;;;;;20.55;35.38;99995.69;5101854;28;8890;-78
2023/08/11 10:05:50;;;;;;;;;11.20;11.20;;;;;20.40;35.45;99998.25;5088925;28;8970;-76
2023/08/11 10:08:21;;;;;;;;;10.40;10.40;;;;;20.75;35.80;99997.25;5086877;28;8878;-75
2023/08/11 10:10:51;;;;;;;;;9.00;9.00;;;;;21.06;35.45;99997.25;5088640;28;8855;-76
2023/08/11 10:13:23;;;;;;;;;9.00;9.00;;;;;21.40;34.85;99989.91;5087663;28;8847;-77
2023/08/11 10:15:55;;;;;;;;;9.00;8.20;;;;;21.64;34.81;99990.31;5085777;28;8846;-73
2023/08/11 10:18:25;;;;;;;;;12.20;9.20;;;;;21.71;33.79;99997.97;5052795;28;8938;-72
2023/08/11 10:20:56;;;;;;;;;8.20;8.00;;;;;21.52;33.92;99991.03;5085945;28;8930;-73
2023/08/11 10:23:25;;;;;;;;;8.80;8.80;;;;;21.87;33.96;99989.88;5085726;27;8884;-76
2023/08/11 10:25:56;;;;;;;;;8.80;8.80;;;;;21.06;34.21;99993.72;5085606;28;8891;-76
2023/08/11 10:28:25;;;;;;;;;7.20;5.80;;;;;21.60;34.23;99991.47;5065811;28;8941;-75
2023/08/11 10:30:58;;;;;;;;;8.40;7.00;;;;;21.98;33.22;99987.41;5065622;28;8852;-73
2023/08/11 10:33:30;;;;;;;;;5.60;5.60;;;;;21.83;32.92;99981.19;5065921;28;8874;-75
2023/08/11 10:36:01;;;;;;;;;5.80;5.80;;;;;22.20;32.13;99979.75;5065665;28;8856;-76
2023/08/11 10:38:31;;;;;;;;;4.00;4.00;;;;;22.39;32.14;99983.97;5066073;28;8844;-76
2023/08/11 10:41:03;;;;;;;;;6.00;6.00;;;;;22.24;31.25;99985.78;5065244;28;9001;-77
2023/08/11 10:43:34;;;;;;;;;6.00;5.60;;;;;22.44;31.48;99981.88;5066077;28;8888;-74
2023/08/11 10:46:25;;;;;;;;;7.00;6.00;;;;;22.79;31.17;99976.06;5067148;28;8872;-74
2023/08/11 10:48:55;;;;;;;;;6.00;6.00;;;;;21.83;31.69;99979.34;4955000;28;8892;-75
2023/08/11 10:51:26;;;;;;;;;6.40;6.40;;;;;21.79;31.88;99974.28;4954609;28;8880;-73
2023/08/11 10:53:56;;;;;;;;;6.40;6.40;;;;;22.26;32.00;99974.97;4938555;28;8861;-76
2023/08/11 10:56:32;;;;;;;;;5.00;5.00;;;;;22.71;30.82;99964.97;4970583;28;8861;-73
2023/08/11 10:59:08;;;;;;;;;8.40;7.80;;;;;22.28;31.82;99975.75;4999652;28;9010;-76
2023/08/11 11:01:38;;;;;;;;;8.00;8.00;;;;;21.91;32.29;99968.16;5029407;28;8856;-75
2023/08/11 11:04:09;;;;;;;;;7.00;7.00;;;;;21.98;31.91;99971.34;5031071;28;9633;-75
2023/08/11 11:06:40;;;;;;;;;7.20;6.60;;;;;22.51;32.68;99968.94;5049235;28;8866;-74
2023/08/11 11:09:08;;;;;;;;;6.40;6.40;;;;;22.73;31.69;99958.56;5049419;28;8862;-76
2023/08/11 11:11:39;;;;;;;;;7.00;6.00;;;;;22.89;30.60;99960.25;4984313;28;8834;-77
2023/08/11 11:14:09;;;;;;;;;8.80;8.80;;;;;22.57;31.42;99964.03;5049078;28;8830;-75
2023/08/11 11:16:39;;;;;;;;;7.20;7.20;;;;;22.15;31.77;99959.59;5044480;28;8850;-75
2023/08/11 11:19:09;;;;;;;;;6.60;6.60;;;;;21.94;32.22;99961.78;5044160;28;8860;-76
2023/08/11 11:21:41;;;;;;;;;8.00;6.80;;;;;22.15;32.24;99951.56;5014784;28;8877;-71
2023/08/11 11:24:10;;;;;;;;;8.20;8.20;;;;;21.88;32.10;99959.47;5048600;28;8931;-75
2023/08/11 11:26:42;;;;;;;;;7.80;7.80;;;;;21.71;32.88;99953.34;5096396;27;8847;-76
2023/08/11 11:29:11;;;;;;;;;8.40;8.40;;;;;21.67;33.24;99949.13;5054847;28;8855;-72
2023/08/11 11:31:41;;;;;;;;;9.40;8.20;;;;;21.86;31.86;99953.34;5062884;28;8843;-74
2023/08/11 11:34:10;;;;;;;;;5.20;5.20;;;;;22.54;32.19;99940.16;5081814;28;8849;-76
2023/08/11 11:36:39;;;;;;;;;7.60;6.80;;;;;23.11;30.82;99933.75;5108417;28;8857;-76
2023/08/11 11:39:09;;;;;;;;;5.60;5.60;;;;;22.96;30.72;99937.44;5110527;28;8967;-72